Spielberg, Austria
Current Conditions -  °F | °C
As of 10:50 PM on Saturday 25 Oct 2014 (Local Time) from LOXT Reporting Station
Broken Clouds Broken Clouds  
Wind Chill: 46°   Ceiling: 2100
Heat Index: 46°   Visibility: 5mi
Dew Point: 43°   Wind: 3mph
Humidity: 87%   Direction: 50°NE
Pressure: 30.27"   Gusts: NA
Location:  48.5°N, 15.87°E
Report Text: LOXT 252050Z 05003KT 8000 FEW012SC BKN021SC 08/06 Q1025 RMK OVC
Loading
Personal Weather Stations






























Interactive Weather Map
Tropical Storm Tracking
New forecast layout! Learn more

10-Day Weather Forecast

Advertisements
Track Severe Weather on mobile